Northfield, MN

9:35 AM CST on December 05, 2016 (GMT -0600)
Spruce Court Weather | | Change Station

Elev 960 ft 44.45 °N, 93.17 °W | Updated 29 seconds ago

Overcast
Overcast
35.2 °F
Feels Like 35 °F
N
2.3
Wind Variable Wind from ENE
Gusts 2.3 mph

Today
High -- | Low -- °F
--% Chance of Precip.
Yesterday
High -- | Low -- °F
Precip. -- in
Pressure 29.77 in
Visibility 7.0 miles
Clouds Scattered Clouds 9000 ft
Overcast 11000 ft
Windchill 35 °F
Dew Point 34 °F
Humidity 94%
Rainfall 0.00 in
Snow Depth Not available.
7:33 AM 4:33 PM
Waxing Crescent, 32% visible
METAR KSYN 051514Z AUTO 17005KT 7SM SCT090 OVC110 02/00 A2977 RMK AO2 T00201003
Pressure 29.77 in
Visibility 7.0 miles
Clouds Scattered Clouds 9000 ft
Overcast 11000 ft
Windchill 35 °F
Dew Point 34 °F
Humidity 94%
Rainfall 0.00 in
Snow Depth Not available.
7:33 AM 4:33 PM
Waxing Crescent, 32% visible
METAR KSYN 051514Z AUTO 17005KT 7SM SCT090 OVC110 02/00 A2977 RMK AO2 T00201003

10-Day Weather Forecast

Almanac

Astronomy

Dec. 05, 2016 Rise Set
Actual Time
Civil Twilight
Nautical Twilight
Astronomical Twilight
Moon
Length of Visible Light
Length of Day
Tomorrow will be .
, % of the Moon is Illuminated

Today's Extremes

State Highs State Lows

Community

WunderPhotos

Upload Photos

1,955,790 photos uploaded!

WunderBlog® & News

Nearby

Air Quality

  Air Quality AQ Index Pollutant
Not available.

Snow Depth

Station Depth Elevation

Earthquake Activity

City Distance Mag. Time & Date
Minimum magnitude displayed is 2.5.

Coastal Water Temperatures

Place Temperature

Stations

Nearby Weather Stations

Station Location Temp. Windchill Dew Point Humidity Wind Precip. Elev Updated Type
                   

Watches & Warnings

There are currently no watches in effect.